sensor_id;sensor_type;location;lat;lon;timestamp;temperature;humidity
71047;SHT31;58703;48.978;8.982;2023-04-15T00:00:42;1.42;96.14
71047;SHT31;58703;48.978;8.982;2023-04-15T00:03:08;1.42;96.29
71047;SHT31;58703;48.978;8.982;2023-04-15T00:05:35;1.34;96.41
71047;SHT31;58703;48.978;8.982;2023-04-15T00:08:02;1.23;96.44
71047;SHT31;58703;48.978;8.982;2023-04-15T00:10:28;1.15;96.19
71047;SHT31;58703;48.978;8.982;2023-04-15T00:12:55;1.10;96.91
71047;SHT31;58703;48.978;8.982;2023-04-15T00:15:21;1.03;97.32
71047;SHT31;58703;48.978;8.982;2023-04-15T00:17:51;1.09;97.92
71047;SHT31;58703;48.978;8.982;2023-04-15T00:20:18;1.19;96.96
71047;SHT31;58703;48.978;8.982;2023-04-15T00:22:45;1.24;96.42
71047;SHT31;58703;48.978;8.982;2023-04-15T00:25:13;1.29;95.24
71047;SHT31;58703;48.978;8.982;2023-04-15T00:27:39;1.20;95.57
71047;SHT31;58703;48.978;8.982;2023-04-15T00:30:06;1.09;95.42
71047;SHT31;58703;48.978;8.982;2023-04-15T00:32:31;0.97;95.74
71047;SHT31;58703;48.978;8.982;2023-04-15T00:34:57;0.83;96.96
71047;SHT31;58703;48.978;8.982;2023-04-15T00:37:23;0.73;97.80
71047;SHT31;58703;48.978;8.982;2023-04-15T00:39:49;0.81;97.57
71047;SHT31;58703;48.978;8.982;2023-04-15T00:42:16;0.82;97.83
71047;SHT31;58703;48.978;8.982;2023-04-15T00:44:43;0.76;97.29
71047;SHT31;58703;48.978;8.982;2023-04-15T00:47:11;0.69;97.66
71047;SHT31;58703;48.978;8.982;2023-04-15T00:49:38;0.69;97.58
71047;SHT31;58703;48.978;8.982;2023-04-15T00:52:05;0.65;97.58
71047;SHT31;58703;48.978;8.982;2023-04-15T00:54:32;0.66;97.85
71047;SHT31;58703;48.978;8.982;2023-04-15T00:56:58;0.65;97.57
71047;SHT31;58703;48.978;8.982;2023-04-15T00:59:25;0.62;97.08
71047;SHT31;58703;48.978;8.982;2023-04-15T01:01:50;0.61;97.31
71047;SHT31;58703;48.978;8.982;2023-04-15T01:04:16;0.73;96.61
71047;SHT31;58703;48.978;8.982;2023-04-15T01:06:42;0.58;96.86
71047;SHT31;58703;48.978;8.982;2023-04-15T01:09:09;0.41;98.24
71047;SHT31;58703;48.978;8.982;2023-04-15T01:11:35;0.38;99.20
71047;SHT31;58703;48.978;8.982;2023-04-15T01:14:01;0.41;99.72
71047;SHT31;58703;48.978;8.982;2023-04-15T01:16:27;0.48;99.88
71047;SHT31;58703;48.978;8.982;2023-04-15T01:18:53;0.58;99.16
71047;SHT31;58703;48.978;8.982;2023-04-15T01:21:19;0.65;98.78
71047;SHT31;58703;48.978;8.982;2023-04-15T01:23:48;0.64;98.52
71047;SHT31;58703;48.978;8.982;2023-04-15T01:26:15;0.48;98.27
71047;SHT31;58703;48.978;8.982;2023-04-15T01:28:43;0.25;99.07
71047;SHT31;58703;48.978;8.982;2023-04-15T01:31:13;0.11;99.31
71047;SHT31;58703;48.978;8.982;2023-04-15T01:33:40;0.10;99.83
71047;SHT31;58703;48.978;8.982;2023-04-15T01:36:07;0.31;98.55
71047;SHT31;58703;48.978;8.982;2023-04-15T01:38:35;0.37;97.98
71047;SHT31;58703;48.978;8.982;2023-04-15T01:41:02;0.30;97.79
71047;SHT31;58703;48.978;8.982;2023-04-15T01:43:34;0.17;98.73
71047;SHT31;58703;48.978;8.982;2023-04-15T01:46:00;0.14;99.00
71047;SHT31;58703;48.978;8.982;2023-04-15T01:48:26;0.09;98.92
71047;SHT31;58703;48.978;8.982;2023-04-15T01:50:53;0.15;98.50
71047;SHT31;58703;48.978;8.982;2023-04-15T01:53:19;0.09;98.78
71047;SHT31;58703;48.978;8.982;2023-04-15T01:55:46;0.10;98.79
71047;SHT31;58703;48.978;8.982;2023-04-15T01:58:11;0.21;98.52
71047;SHT31;58703;48.978;8.982;2023-04-15T02:00:37;0.30;98.09
71047;SHT31;58703;48.978;8.982;2023-04-15T02:03:03;0.13;98.19
71047;SHT31;58703;48.978;8.982;2023-04-15T02:05:28;0.20;99.07
71047;SHT31;58703;48.978;8.982;2023-04-15T02:07:54;0.36;99.51
71047;SHT31;58703;48.978;8.982;2023-04-15T02:10:20;0.38;99.22
71047;SHT31;58703;48.978;8.982;2023-04-15T02:12:47;0.30;99.04
71047;SHT31;58703;48.978;8.982;2023-04-15T02:15:12;0.32;98.70
71047;SHT31;58703;48.978;8.982;2023-04-15T02:17:38;0.21;97.99
71047;SHT31;58703;48.978;8.982;2023-04-15T02:20:05;0.09;97.74
71047;SHT31;58703;48.978;8.982;2023-04-15T02:22:31;-0.07;98.18
71047;SHT31;58703;48.978;8.982;2023-04-15T02:24:56;-0.28;98.23
71047;SHT31;58703;48.978;8.982;2023-04-15T02:27:23;-0.28;98.80
71047;SHT31;58703;48.978;8.982;2023-04-15T02:29:48;-0.31;99.50
71047;SHT31;58703;48.978;8.982;2023-04-15T02:32:17;-0.47;99.78
71047;SHT31;58703;48.978;8.982;2023-04-15T02:34:43;-0.47;99.99
71047;SHT31;58703;48.978;8.982;2023-04-15T02:37:09;-0.55;99.99
71047;SHT31;58703;48.978;8.982;2023-04-15T02:39:35;-0.50;99.99
71047;SHT31;58703;48.978;8.982;2023-04-15T02:42:01;-0.54;99.99
71047;SHT31;58703;48.978;8.982;2023-04-15T02:44:27;-0.48;99.99
71047;SHT31;58703;48.978;8.982;2023-04-15T02:46:54;-0.42;99.99
71047;SHT31;58703;48.978;8.982;2023-04-15T02:49:20;-0.50;99.99
71047;SHT31;58703;48.978;8.982;2023-04-15T02:51:46;-0.60;99.99
71047;SHT31;58703;48.978;8.982;2023-04-15T02:54:18;-0.64;99.99
71047;SHT31;58703;48.978;8.982;2023-04-15T02:56:44;-0.76;99.99
71047;SHT31;58703;48.978;8.982;2023-04-15T02:59:11;-0.71;99.99
71047;SHT31;58703;48.978;8.982;2023-04-15T03:01:37;-0.42;99.99
71047;SHT31;58703;48.978;8.982;2023-04-15T03:04:03;-0.41;99.99
71047;SHT31;58703;48.978;8.982;2023-04-15T03:06:28;-0.31;99.99
71047;SHT31;58703;48.978;8.982;2023-04-15T03:08:54;-0.34;99.99
71047;SHT31;58703;48.978;8.982;2023-04-15T03:11:21;-0.34;99.99
71047;SHT31;58703;48.978;8.982;2023-04-15T03:13:47;-0.30;99.99
71047;SHT31;58703;48.978;8.982;2023-04-15T03:16:13;-0.30;99.99
71047;SHT31;58703;48.978;8.982;2023-04-15T03:18:40;-0.27;99.99
71047;SHT31;58703;48.978;8.982;2023-04-15T03:21:07;-0.25;99.42
71047;SHT31;58703;48.978;8.982;2023-04-15T03:23:32;-0.45;99.71
71047;SHT31;58703;48.978;8.982;2023-04-15T03:26:03;-0.38;99.99
71047;SHT31;58703;48.978;8.982;2023-04-15T03:28:30;-0.28;99.99
71047;SHT31;58703;48.978;8.982;2023-04-15T03:30:58;-0.31;99.99
71047;SHT31;58703;48.978;8.982;2023-04-15T03:33:24;-0.31;99.99
71047;SHT31;58703;48.978;8.982;2023-04-15T03:35:52;-0.35;99.99
71047;SHT31;58703;48.978;8.982;2023-04-15T03:38:17;-0.40;99.99
71047;SHT31;58703;48.978;8.982;2023-04-15T03:40:45;-0.44;99.96
71047;SHT31;58703;48.978;8.982;2023-04-15T03:43:11;-0.50;99.99
71047;SHT31;58703;48.978;8.982;2023-04-15T03:45:38;-0.58;99.99
71047;SHT31;58703;48.978;8.982;2023-04-15T03:48:05;-0.54;99.99
71047;SHT31;58703;48.978;8.982;2023-04-15T03:50:30;-0.45;99.90
71047;SHT31;58703;48.978;8.982;2023-04-15T03:52:56;-0.35;99.78
71047;SHT31;58703;48.978;8.982;2023-04-15T03:55:21;-0.35;99.24
71047;SHT31;58703;48.978;8.982;2023-04-15T03:57:47;-0.41;99.26
71047;SHT31;58703;48.978;8.982;2023-04-15T04:00:12;-0.48;99.58
71047;SHT31;58703;48.978;8.982;2023-04-15T04:02:39;-0.54;99.99
71047;SHT31;58703;48.978;8.982;2023-04-15T04:05:05;-0.51;99.99
71047;SHT31;58703;48.978;8.982;2023-04-15T04:07:31;-0.37;99.99
71047;SHT31;58703;48.978;8.982;2023-04-15T04:09:57;-0.35;99.99
71047;SHT31;58703;48.978;8.982;2023-04-15T04:12:22;-0.31;99.99
71047;SHT31;58703;48.978;8.982;2023-04-15T04:14:49;-0.31;99.99
71047;SHT31;58703;48.978;8.982;2023-04-15T04:17:15;-0.41;99.99
71047;SHT31;58703;48.978;8.982;2023-04-15T04:19:42;-0.48;99.99
71047;SHT31;58703;48.978;8.982;2023-04-15T04:22:07;-0.74;99.51
71047;SHT31;58703;48.978;8.982;2023-04-15T04:24:33;-0.89;99.99
71047;SHT31;58703;48.978;8.982;2023-04-15T04:26:58;-0.93;99.99
71047;SHT31;58703;48.978;8.982;2023-04-15T04:29:24;-0.93;99.99
71047;SHT31;58703;48.978;8.982;2023-04-15T04:31:49;-1.00;99.99
71047;SHT31;58703;48.978;8.982;2023-04-15T04:34:16;-1.05;99.99
71047;SHT31;58703;48.978;8.982;2023-04-15T04:36:42;-1.00;99.99
71047;SHT31;58703;48.978;8.982;2023-04-15T04:39:07;-0.95;99.99
71047;SHT31;58703;48.978;8.982;2023-04-15T04:41:33;-0.97;99.99
71047;SHT31;58703;48.978;8.982;2023-04-15T04:43:58;-1.02;99.99
71047;SHT31;58703;48.978;8.982;2023-04-15T04:46:24;-1.03;99.99
71047;SHT31;58703;48.978;8.982;2023-04-15T04:48:50;-0.96;99.99
71047;SHT31;58703;48.978;8.982;2023-04-15T04:51:18;-0.89;99.99
71047;SHT31;58703;48.978;8.982;2023-04-15T04:53:44;-0.75;99.99
71047;SHT31;58703;48.978;8.982;2023-04-15T04:56:10;-0.78;99.99
71047;SHT31;58703;48.978;8.982;2023-04-15T04:58:35;-0.81;99.99
71047;SHT31;58703;48.978;8.982;2023-04-15T05:01:02;-0.84;99.99
71047;SHT31;58703;48.978;8.982;2023-04-15T05:03:28;-0.71;99.99
71047;SHT31;58703;48.978;8.982;2023-04-15T05:05:54;-0.74;99.99
71047;SHT31;58703;48.978;8.982;2023-04-15T05:08:20;-0.71;99.99
71047;SHT31;58703;48.978;8.982;2023-04-15T05:10:45;-0.62;99.99
71047;SHT31;58703;48.978;8.982;2023-04-15T05:13:11;-0.64;99.99
71047;SHT31;58703;48.978;8.982;2023-04-15T05:15:38;-0.58;99.99
71047;SHT31;58703;48.978;8.982;2023-04-15T05:18:05;-0.52;99.99
71047;SHT31;58703;48.978;8.982;2023-04-15T05:20:32;-0.40;99.99
71047;SHT31;58703;48.978;8.982;2023-04-15T05:22:59;-0.33;99.99
71047;SHT31;58703;48.978;8.982;2023-04-15T05:25:25;-0.24;99.99
71047;SHT31;58703;48.978;8.982;2023-04-15T05:27:51;-0.20;99.99
71047;SHT31;58703;48.978;8.982;2023-04-15T05:30:16;-0.07;99.99
71047;SHT31;58703;48.978;8.982;2023-04-15T05:32:42;0.06;99.99
71047;SHT31;58703;48.978;8.982;2023-04-15T05:35:08;0.18;99.99
71047;SHT31;58703;48.978;8.982;2023-04-15T05:37:34;0.40;99.99
71047;SHT31;58703;48.978;8.982;2023-04-15T05:40:00;0.64;99.99
71047;SHT31;58703;48.978;8.982;2023-04-15T05:42:25;0.97;99.99
71047;SHT31;58703;48.978;8.982;2023-04-15T05:44:51;1.30;99.53
71047;SHT31;58703;48.978;8.982;2023-04-15T05:47:16;1.50;98.19
71047;SHT31;58703;48.978;8.982;2023-04-15T05:49:42;1.64;98.24
71047;SHT31;58703;48.978;8.982;2023-04-15T05:52:07;1.58;96.79
71047;SHT31;58703;48.978;8.982;2023-04-15T05:54:34;1.77;97.54
71047;SHT31;58703;48.978;8.982;2023-04-15T05:57:00;2.04;96.07
71047;SHT31;58703;48.978;8.982;2023-04-15T05:59:27;2.26;96.12
71047;SHT31;58703;48.978;8.982;2023-04-15T06:01:53;2.60;95.34
71047;SHT31;58703;48.978;8.982;2023-04-15T06:04:18;2.89;94.89
71047;SHT31;58703;48.978;8.982;2023-04-15T06:06:44;2.48;94.61
71047;SHT31;58703;48.978;8.982;2023-04-15T06:09:11;2.56;95.26
71047;SHT31;58703;48.978;8.982;2023-04-15T06:11:36;2.86;94.99
71047;SHT31;58703;48.978;8.982;2023-04-15T06:14:02;3.08;94.09
71047;SHT31;58703;48.978;8.982;2023-04-15T06:16:28;3.30;93.43
71047;SHT31;58703;48.978;8.982;2023-04-15T06:18:54;3.30;91.04
71047;SHT31;58703;48.978;8.982;2023-04-15T06:21:21;3.34;92.26
71047;SHT31;58703;48.978;8.982;2023-04-15T06:23:46;3.62;91.60
71047;SHT31;58703;48.978;8.982;2023-04-15T06:26:13;3.71;91.23
71047;SHT31;58703;48.978;8.982;2023-04-15T06:28:40;3.83;90.44
71047;SHT31;58703;48.978;8.982;2023-04-15T06:31:05;3.75;90.43
71047;SHT31;58703;48.978;8.982;2023-04-15T06:33:31;3.92;90.95
71047;SHT31;58703;48.978;8.982;2023-04-15T06:35:57;3.93;89.73
71047;SHT31;58703;48.978;8.982;2023-04-15T06:38:23;4.23;91.90
71047;SHT31;58703;48.978;8.982;2023-04-15T06:40:50;4.54;89.38
71047;SHT31;58703;48.978;8.982;2023-04-15T06:43:17;4.79;89.10
71047;SHT31;58703;48.978;8.982;2023-04-15T06:45:42;4.77;88.07
71047;SHT31;58703;48.978;8.982;2023-04-15T06:48:09;4.91;88.09
71047;SHT31;58703;48.978;8.982;2023-04-15T06:50:36;4.96;87.99
71047;SHT31;58703;48.978;8.982;2023-04-15T06:53:02;5.19;87.08
71047;SHT31;58703;48.978;8.982;2023-04-15T06:55:27;5.75;85.51
71047;SHT31;58703;48.978;8.982;2023-04-15T06:57:54;6.07;85.62
71047;SHT31;58703;48.978;8.982;2023-04-15T07:00:20;6.42;82.91
71047;SHT31;58703;48.978;8.982;2023-04-15T07:02:45;6.17;82.30
71047;SHT31;58703;48.978;8.982;2023-04-15T07:05:11;6.11;82.40
71047;SHT31;58703;48.978;8.982;2023-04-15T07:07:37;6.14;81.44
71047;SHT31;58703;48.978;8.982;2023-04-15T07:10:02;6.49;83.15
71047;SHT31;58703;48.978;8.982;2023-04-15T07:12:29;7.40;80.00
71047;SHT31;58703;48.978;8.982;2023-04-15T07:14:55;7.57;78.77
71047;SHT31;58703;48.978;8.982;2023-04-15T07:17:21;7.81;78.86
71047;SHT31;58703;48.978;8.982;2023-04-15T07:19:46;8.37;77.30
71047;SHT31;58703;48.978;8.982;2023-04-15T07:22:13;8.80;73.93
71047;SHT31;58703;48.978;8.982;2023-04-15T07:24:39;8.89;73.06
71047;SHT31;58703;48.978;8.982;2023-04-15T07:27:04;8.98;72.87
71047;SHT31;58703;48.978;8.982;2023-04-15T07:29:31;9.04;74.85
71047;SHT31;58703;48.978;8.982;2023-04-15T07:31:56;9.58;74.21
71047;SHT31;58703;48.978;8.982;2023-04-15T07:34:22;10.01;72.10
71047;SHT31;58703;48.978;8.982;2023-04-15T07:36:48;10.03;70.08
71047;SHT31;58703;48.978;8.982;2023-04-15T07:39:17;9.70;70.46
71047;SHT31;58703;48.978;8.982;2023-04-15T07:41:43;9.60;72.52
71047;SHT31;58703;48.978;8.982;2023-04-15T07:44:10;9.77;70.50
71047;SHT31;58703;48.978;8.982;2023-04-15T07:46:36;9.93;71.78
71047;SHT31;58703;48.978;8.982;2023-04-15T07:49:03;10.03;70.93
71047;SHT31;58703;48.978;8.982;2023-04-15T07:51:29;10.30;70.98
71047;SHT31;58703;48.978;8.982;2023-04-15T07:53:54;10.51;70.39
71047;SHT31;58703;48.978;8.982;2023-04-15T07:56:20;10.65;70.36
71047;SHT31;58703;48.978;8.982;2023-04-15T07:58:46;10.33;69.59
71047;SHT31;58703;48.978;8.982;2023-04-15T08:01:13;10.96;69.90
71047;SHT31;58703;48.978;8.982;2023-04-15T08:03:41;11.56;68.56
71047;SHT31;58703;48.978;8.982;2023-04-15T08:06:08;11.91;66.63
71047;SHT31;58703;48.978;8.982;2023-04-15T08:08:35;12.24;65.79
71047;SHT31;58703;48.978;8.982;2023-04-15T08:11:01;11.63;66.36
71047;SHT31;58703;48.978;8.982;2023-04-15T08:13:28;11.33;66.79
71047;SHT31;58703;48.978;8.982;2023-04-15T08:16:22;11.06;69.44
71047;SHT31;58703;48.978;8.982;2023-04-15T08:18:51;11.98;67.89
71047;SHT31;58703;48.978;8.982;2023-04-15T08:21:18;12.21;67.00
71047;SHT31;58703;48.978;8.982;2023-04-15T08:23:47;12.08;67.53
71047;SHT31;58703;48.978;8.982;2023-04-15T08:26:16;11.84;69.72
71047;SHT31;58703;48.978;8.982;2023-04-15T08:28:43;12.34;68.62
71047;SHT31;58703;48.978;8.982;2023-04-15T08:31:11;11.93;69.59
71047;SHT31;58703;48.978;8.982;2023-04-15T08:33:39;12.36;68.85
71047;SHT31;58703;48.978;8.982;2023-04-15T08:36:05;13.51;68.33
71047;SHT31;58703;48.978;8.982;2023-04-15T08:38:32;13.86;63.69
71047;SHT31;58703;48.978;8.982;2023-04-15T08:40:59;13.70;64.11
71047;SHT31;58703;48.978;8.982;2023-04-15T08:43:33;13.88;63.52
71047;SHT31;58703;48.978;8.982;2023-04-15T08:45:59;13.46;65.26
71047;SHT31;58703;48.978;8.982;2023-04-15T08:48:32;13.89;63.88
71047;SHT31;58703;48.978;8.982;2023-04-15T08:51:01;14.19;63.19
71047;SHT31;58703;48.978;8.982;2023-04-15T08:53:28;14.32;64.55
71047;SHT31;58703;48.978;8.982;2023-04-15T08:55:56;14.23;64.12
71047;SHT31;58703;48.978;8.982;2023-04-15T08:58:26;15.39;61.03
71047;SHT31;58703;48.978;8.982;2023-04-15T09:00:51;15.73;60.41
71047;SHT31;58703;48.978;8.982;2023-04-15T09:03:19;15.97;58.32
71047;SHT31;58703;48.978;8.982;2023-04-15T09:05:49;14.97;59.91
71047;SHT31;58703;48.978;8.982;2023-04-15T09:08:16;14.60;61.11
71047;SHT31;58703;48.978;8.982;2023-04-15T09:10:42;15.11;59.77
71047;SHT31;58703;48.978;8.982;2023-04-15T09:13:09;15.42;58.64
71047;SHT31;58703;48.978;8.982;2023-04-15T09:15:37;15.92;58.27
71047;SHT31;58703;48.978;8.982;2023-04-15T09:18:03;16.88;55.22
71047;SHT31;58703;48.978;8.982;2023-04-15T09:20:38;17.66;53.91
71047;SHT31;58703;48.978;8.982;2023-04-15T09:23:14;18.11;49.15
71047;SHT31;58703;48.978;8.982;2023-04-15T09:25:44;17.82;50.28
71047;SHT31;58703;48.978;8.982;2023-04-15T09:28:09;17.63;46.44
71047;SHT31;58703;48.978;8.982;2023-04-15T09:30:37;16.98;47.13
71047;SHT31;58703;48.978;8.982;2023-04-15T09:33:03;15.89;46.40
71047;SHT31;58703;48.978;8.982;2023-04-15T09:35:33;15.96;49.02
71047;SHT31;58703;48.978;8.982;2023-04-15T09:38:06;15.58;50.06
71047;SHT31;58703;48.978;8.982;2023-04-15T09:40:39;15.65;50.71
71047;SHT31;58703;48.978;8.982;2023-04-15T09:43:08;15.31;51.68
71047;SHT31;58703;48.978;8.982;2023-04-15T09:45:34;14.83;50.22
71047;SHT31;58703;48.978;8.982;2023-04-15T09:48:33;15.23;48.79
71047;SHT31;58703;48.978;8.982;2023-04-15T09:50:59;15.34;49.15
71047;SHT31;58703;48.978;8.982;2023-04-15T09:53:27;14.73;50.10
71047;SHT31;58703;48.978;8.982;2023-04-15T09:55:58;14.53;50.38
71047;SHT31;58703;48.978;8.982;2023-04-15T09:58:27;15.15;51.25
71047;SHT31;58703;48.978;8.982;2023-04-15T10:00:55;14.95;50.78
71047;SHT31;58703;48.978;8.982;2023-04-15T10:03:25;14.55;50.75
71047;SHT31;58703;48.978;8.982;2023-04-15T10:05:54;14.47;51.11
71047;SHT31;58703;48.978;8.982;2023-04-15T10:08:25;14.55;49.62
71047;SHT31;58703;48.978;8.982;2023-04-15T10:10:53;14.90;49.59
71047;SHT31;58703;48.978;8.982;2023-04-15T10:13:20;14.80;51.07
71047;SHT31;58703;48.978;8.982;2023-04-15T10:18:18;14.95;52.38
71047;SHT31;58703;48.978;8.982;2023-04-15T10:20:47;15.07;51.78
71047;SHT31;58703;48.978;8.982;2023-04-15T10:23:14;15.28;52.98
71047;SHT31;58703;48.978;8.982;2023-04-15T10:25:41;15.35;51.86
71047;SHT31;58703;48.978;8.982;2023-04-15T10:28:09;15.20;51.51
71047;SHT31;58703;48.978;8.982;2023-04-15T10:30:36;15.18;53.45
71047;SHT31;58703;48.978;8.982;2023-04-15T10:33:04;14.98;53.73
71047;SHT31;58703;48.978;8.982;2023-04-15T10:35:31;15.04;55.24
71047;SHT31;58703;48.978;8.982;2023-04-15T10:37:58;14.74;54.30
71047;SHT31;58703;48.978;8.982;2023-04-15T10:40:31;15.49;54.27
71047;SHT31;58703;48.978;8.982;2023-04-15T10:42:59;14.60;54.57
71047;SHT31;58703;48.978;8.982;2023-04-15T10:45:27;14.79;54.32
71047;SHT31;58703;48.978;8.982;2023-04-15T10:47:57;15.41;54.11
71047;SHT31;58703;48.978;8.982;2023-04-15T10:50:27;14.90;50.86
71047;SHT31;58703;48.978;8.982;2023-04-15T10:52:55;15.66;51.73
71047;SHT31;58703;48.978;8.982;2023-04-15T10:55:23;15.23;51.06
71047;SHT31;58703;48.978;8.982;2023-04-15T10:57:54;15.62;50.78
71047;SHT31;58703;48.978;8.982;2023-04-15T11:00:24;15.73;53.03
71047;SHT31;58703;48.978;8.982;2023-04-15T11:03:04;15.01;51.56
71047;SHT31;58703;48.978;8.982;2023-04-15T11:05:50;15.00;52.28
71047;SHT31;58703;48.978;8.982;2023-04-15T11:08:16;14.79;53.82
71047;SHT31;58703;48.978;8.982;2023-04-15T11:13:16;14.85;54.10
71047;SHT31;58703;48.978;8.982;2023-04-15T11:15:46;15.35;54.86
71047;SHT31;58703;48.978;8.982;2023-04-15T11:18:15;15.66;52.17
71047;SHT31;58703;48.978;8.982;2023-04-15T11:20:47;14.87;53.34
71047;SHT31;58703;48.978;8.982;2023-04-15T11:23:14;15.21;52.79
71047;SHT31;58703;48.978;8.982;2023-04-15T11:25:42;15.66;51.95
71047;SHT31;58703;48.978;8.982;2023-04-15T11:28:10;15.39;51.19
71047;SHT31;58703;48.978;8.982;2023-04-15T11:30:39;15.54;48.62
71047;SHT31;58703;48.978;8.982;2023-04-15T11:33:06;15.42;48.21
71047;SHT31;58703;48.978;8.982;2023-04-15T11:35:36;15.51;49.71
71047;SHT31;58703;48.978;8.982;2023-04-15T11:38:08;15.85;50.51
71047;SHT31;58703;48.978;8.982;2023-04-15T11:40:35;15.79;50.45
71047;SHT31;58703;48.978;8.982;2023-04-15T11:43:15;16.14;49.62
71047;SHT31;58703;48.978;8.982;2023-04-15T11:45:54;16.14;51.86
71047;SHT31;58703;48.978;8.982;2023-04-15T11:48:25;15.82;51.88
71047;SHT31;58703;48.978;8.982;2023-04-15T11:51:01;15.42;51.81
71047;SHT31;58703;48.978;8.982;2023-04-15T11:56:08;14.12;56.14
71047;SHT31;58703;48.978;8.982;2023-04-15T11:58:35;13.46;60.50
71047;SHT31;58703;48.978;8.982;2023-04-15T12:01:06;12.62;63.90
71047;SHT31;58703;48.978;8.982;2023-04-15T12:03:47;12.10;67.16
71047;SHT31;58703;48.978;8.982;2023-04-15T12:06:21;11.98;68.05
71047;SHT31;58703;48.978;8.982;2023-04-15T12:11:42;12.38;64.68
71047;SHT31;58703;48.978;8.982;2023-04-15T12:14:31;12.95;63.24
71047;SHT31;58703;48.978;8.982;2023-04-15T12:17:09;12.62;59.84
71047;SHT31;58703;48.978;8.982;2023-04-15T12:19:40;11.66;66.18
71047;SHT31;58703;48.978;8.982;2023-04-15T12:22:12;10.64;74.97
71047;SHT31;58703;48.978;8.982;2023-04-15T12:24:39;10.62;74.65
71047;SHT31;58703;48.978;8.982;2023-04-15T12:27:10;10.75;72.03
71047;SHT31;58703;48.978;8.982;2023-04-15T12:29:38;11.18;76.79
71047;SHT31;58703;48.978;8.982;2023-04-15T12:32:11;11.46;70.71
71047;SHT31;58703;48.978;8.982;2023-04-15T12:34:39;11.90;71.79
71047;SHT31;58703;48.978;8.982;2023-04-15T12:37:07;11.98;68.50
71047;SHT31;58703;48.978;8.982;2023-04-15T12:39:35;12.22;69.46
71047;SHT31;58703;48.978;8.982;2023-04-15T12:42:02;12.56;69.96
71047;SHT31;58703;48.978;8.982;2023-04-15T12:44:28;13.02;67.81
71047;SHT31;58703;48.978;8.982;2023-04-15T12:46:59;12.99;60.90
71047;SHT31;58703;48.978;8.982;2023-04-15T12:49:30;13.28;62.52
71047;SHT31;58703;48.978;8.982;2023-04-15T12:51:57;13.14;59.27
71047;SHT31;58703;48.978;8.982;2023-04-15T12:54:25;13.10;57.52
71047;SHT31;58703;48.978;8.982;2023-04-15T12:56:51;13.20;57.86
71047;SHT31;58703;48.978;8.982;2023-04-15T12:59:17;13.04;56.19
71047;SHT31;58703;48.978;8.982;2023-04-15T13:01:43;12.95;56.16
71047;SHT31;58703;48.978;8.982;2023-04-15T13:04:10;13.16;57.31
71047;SHT31;58703;48.978;8.982;2023-04-15T13:06:36;12.92;52.19
71047;SHT31;58703;48.978;8.982;2023-04-15T13:09:03;12.66;51.72
71047;SHT31;58703;48.978;8.982;2023-04-15T13:11:29;12.80;53.21
71047;SHT31;58703;48.978;8.982;2023-04-15T13:14:05;12.68;51.60
71047;SHT31;58703;48.978;8.982;2023-04-15T13:16:32;12.63;51.59
71047;SHT31;58703;48.978;8.982;2023-04-15T13:19:00;12.73;51.27
71047;SHT31;58703;48.978;8.982;2023-04-15T13:21:27;12.82;51.78
71047;SHT31;58703;48.978;8.982;2023-04-15T13:23:54;13.04;51.54
71047;SHT31;58703;48.978;8.982;2023-04-15T13:26:21;12.97;49.33
71047;SHT31;58703;48.978;8.982;2023-04-15T13:28:48;13.02;49.76
71047;SHT31;58703;48.978;8.982;2023-04-15T13:31:13;12.92;50.26
71047;SHT31;58703;48.978;8.982;2023-04-15T13:33:40;12.96;50.57
71047;SHT31;58703;48.978;8.982;2023-04-15T13:36:06;13.00;50.61
71047;SHT31;58703;48.978;8.982;2023-04-15T13:38:32;12.83;49.18
71047;SHT31;58703;48.978;8.982;2023-04-15T13:40:58;12.55;48.17
71047;SHT31;58703;48.978;8.982;2023-04-15T13:43:24;12.36;48.39
71047;SHT31;58703;48.978;8.982;2023-04-15T13:45:49;12.25;50.44
71047;SHT31;58703;48.978;8.982;2023-04-15T13:48:15;12.26;50.53
71047;SHT31;58703;48.978;8.982;2023-04-15T13:50:42;12.34;51.25
71047;SHT31;58703;48.978;8.982;2023-04-15T13:53:11;12.17;52.03
71047;SHT31;58703;48.978;8.982;2023-04-15T13:55:38;12.24;50.81
71047;SHT31;58703;48.978;8.982;2023-04-15T13:58:07;12.14;52.22
71047;SHT31;58703;48.978;8.982;2023-04-15T14:00:32;12.15;53.46
71047;SHT31;58703;48.978;8.982;2023-04-15T14:02:59;12.04;52.44
71047;SHT31;58703;48.978;8.982;2023-04-15T14:05:24;12.11;53.55
71047;SHT31;58703;48.978;8.982;2023-04-15T14:07:51;11.93;53.52
71047;SHT31;58703;48.978;8.982;2023-04-15T14:10:17;11.91;55.06
71047;SHT31;58703;48.978;8.982;2023-04-15T14:12:43;11.74;55.85
71047;SHT31;58703;48.978;8.982;2023-04-15T14:15:08;11.63;55.25
71047;SHT31;58703;48.978;8.982;2023-04-15T14:17:34;11.64;55.78
71047;SHT31;58703;48.978;8.982;2023-04-15T14:20:01;11.70;56.88
71047;SHT31;58703;48.978;8.982;2023-04-15T14:22:28;11.46;58.75
71047;SHT31;58703;48.978;8.982;2023-04-15T14:24:55;11.37;60.05
71047;SHT31;58703;48.978;8.982;2023-04-15T14:27:20;11.36;58.48
71047;SHT31;58703;48.978;8.982;2023-04-15T14:29:46;11.42;60.04
71047;SHT31;58703;48.978;8.982;2023-04-15T14:32:12;11.34;59.64
71047;SHT31;58703;48.978;8.982;2023-04-15T14:34:38;11.42;60.97
71047;SHT31;58703;48.978;8.982;2023-04-15T14:37:03;11.43;59.99
71047;SHT31;58703;48.978;8.982;2023-04-15T14:39:30;11.52;57.17
71047;SHT31;58703;48.978;8.982;2023-04-15T14:41:56;11.52;58.63
71047;SHT31;58703;48.978;8.982;2023-04-15T14:44:21;11.44;58.85
71047;SHT31;58703;48.978;8.982;2023-04-15T14:46:48;11.49;58.66
71047;SHT31;58703;48.978;8.982;2023-04-15T14:49:13;11.50;56.47
71047;SHT31;58703;48.978;8.982;2023-04-15T14:51:39;11.59;56.70
71047;SHT31;58703;48.978;8.982;2023-04-15T14:54:07;11.56;55.40
71047;SHT31;58703;48.978;8.982;2023-04-15T14:56:32;11.63;55.52
71047;SHT31;58703;48.978;8.982;2023-04-15T14:58:58;11.63;55.34
71047;SHT31;58703;48.978;8.982;2023-04-15T15:01:23;11.53;56.67
71047;SHT31;58703;48.978;8.982;2023-04-15T15:03:49;11.59;56.22
71047;SHT31;58703;48.978;8.982;2023-04-15T15:06:14;11.70;55.83
71047;SHT31;58703;48.978;8.982;2023-04-15T15:08:40;11.74;54.91
71047;SHT31;58703;48.978;8.982;2023-04-15T15:11:07;11.80;55.00
71047;SHT31;58703;48.978;8.982;2023-04-15T15:13:32;11.94;56.27
71047;SHT31;58703;48.978;8.982;2023-04-15T15:15:59;11.90;55.69
71047;SHT31;58703;48.978;8.982;2023-04-15T15:18:25;11.90;55.16
71047;SHT31;58703;48.978;8.982;2023-04-15T15:20:51;11.93;55.53
71047;SHT31;58703;48.978;8.982;2023-04-15T15:23:17;11.94;56.88
71047;SHT31;58703;48.978;8.982;2023-04-15T15:25:45;11.93;55.82
71047;SHT31;58703;48.978;8.982;2023-04-15T15:28:11;11.97;57.37
71047;SHT31;58703;48.978;8.982;2023-04-15T15:30:36;11.94;56.61
71047;SHT31;58703;48.978;8.982;2023-04-15T15:33:02;11.81;58.72
71047;SHT31;58703;48.978;8.982;2023-04-15T15:35:28;11.71;59.00
71047;SHT31;58703;48.978;8.982;2023-04-15T15:37:53;11.66;60.10
71047;SHT31;58703;48.978;8.982;2023-04-15T15:40:19;11.57;61.32
71047;SHT31;58703;48.978;8.982;2023-04-15T15:42:46;11.49;62.04
71047;SHT31;58703;48.978;8.982;2023-04-15T15:45:14;11.44;62.82